sensor_id;sensor_type;location;lat;lon;timestamp;temperature;humidity
5461;DHT22;2753;49.196;8.286;2022-07-17T00:00:23;21.40;57.00
5461;DHT22;2753;49.196;8.286;2022-07-17T00:02:49;21.40;57.00
5461;DHT22;2753;49.196;8.286;2022-07-17T00:05:15;21.30;57.00
5461;DHT22;2753;49.196;8.286;2022-07-17T00:07:41;21.30;57.10
5461;DHT22;2753;49.196;8.286;2022-07-17T00:10:07;21.30;57.00
5461;DHT22;2753;49.196;8.286;2022-07-17T00:12:33;21.30;57.00
5461;DHT22;2753;49.196;8.286;2022-07-17T00:14:59;21.20;57.10
5461;DHT22;2753;49.196;8.286;2022-07-17T00:17:24;21.20;57.00
5461;DHT22;2753;49.196;8.286;2022-07-17T00:19:50;21.20;57.20
5461;DHT22;2753;49.196;8.286;2022-07-17T00:22:16;21.10;57.20
5461;DHT22;2753;49.196;8.286;2022-07-17T00:24:42;21.10;57.30
5461;DHT22;2753;49.196;8.286;2022-07-17T00:27:07;21.10;57.40
5461;DHT22;2753;49.196;8.286;2022-07-17T00:29:33;21.00;57.40
5461;DHT22;2753;49.196;8.286;2022-07-17T00:31:59;20.90;57.50
5461;DHT22;2753;49.196;8.286;2022-07-17T00:34:24;20.90;57.50
5461;DHT22;2753;49.196;8.286;2022-07-17T00:36:50;20.80;57.50
5461;DHT22;2753;49.196;8.286;2022-07-17T00:39:16;20.80;57.50
5461;DHT22;2753;49.196;8.286;2022-07-17T00:41:44;20.80;57.60
5461;DHT22;2753;49.196;8.286;2022-07-17T00:44:10;20.80;57.60
5461;DHT22;2753;49.196;8.286;2022-07-17T00:46:38;20.70;57.80
5461;DHT22;2753;49.196;8.286;2022-07-17T00:49:04;20.70;57.70
5461;DHT22;2753;49.196;8.286;2022-07-17T00:51:31;20.60;57.70
5461;DHT22;2753;49.196;8.286;2022-07-17T00:53:58;20.60;57.80
5461;DHT22;2753;49.196;8.286;2022-07-17T00:56:25;20.60;57.70
5461;DHT22;2753;49.196;8.286;2022-07-17T00:58:52;20.60;57.70
5461;DHT22;2753;49.196;8.286;2022-07-17T01:01:18;20.60;57.60
5461;DHT22;2753;49.196;8.286;2022-07-17T01:03:44;20.60;57.70
5461;DHT22;2753;49.196;8.286;2022-07-17T01:06:10;20.50;57.60
5461;DHT22;2753;49.196;8.286;2022-07-17T01:08:36;20.50;57.60
5461;DHT22;2753;49.196;8.286;2022-07-17T01:11:03;20.50;57.70
5461;DHT22;2753;49.196;8.286;2022-07-17T01:13:30;20.40;58.10
5461;DHT22;2753;49.196;8.286;2022-07-17T01:15:57;20.40;58.00
5461;DHT22;2753;49.196;8.286;2022-07-17T01:18:23;20.40;57.90
5461;DHT22;2753;49.196;8.286;2022-07-17T01:20:50;20.40;57.90
5461;DHT22;2753;49.196;8.286;2022-07-17T01:23:17;20.40;58.30
5461;DHT22;2753;49.196;8.286;2022-07-17T01:25:44;20.40;58.10
5461;DHT22;2753;49.196;8.286;2022-07-17T01:28:10;20.40;58.20
5461;DHT22;2753;49.196;8.286;2022-07-17T01:30:35;20.30;58.30
5461;DHT22;2753;49.196;8.286;2022-07-17T01:33:01;20.30;58.50
5461;DHT22;2753;49.196;8.286;2022-07-17T01:35:27;20.30;58.50
5461;DHT22;2753;49.196;8.286;2022-07-17T01:37:53;20.20;58.60
5461;DHT22;2753;49.196;8.286;2022-07-17T01:40:19;20.20;58.70
5461;DHT22;2753;49.196;8.286;2022-07-17T01:42:47;20.10;59.10
5461;DHT22;2753;49.196;8.286;2022-07-17T01:45:15;20.00;59.10
5461;DHT22;2753;49.196;8.286;2022-07-17T01:47:41;20.00;59.20
5461;DHT22;2753;49.196;8.286;2022-07-17T01:50:09;20.00;59.10
5461;DHT22;2753;49.196;8.286;2022-07-17T01:52:38;20.00;59.00
5461;DHT22;2753;49.196;8.286;2022-07-17T01:55:05;20.00;59.00
5461;DHT22;2753;49.196;8.286;2022-07-17T01:57:31;19.90;59.00
5461;DHT22;2753;49.196;8.286;2022-07-17T01:59:57;19.90;59.10
5461;DHT22;2753;49.196;8.286;2022-07-17T02:02:22;19.90;59.10
5461;DHT22;2753;49.196;8.286;2022-07-17T02:04:48;19.90;59.50
5461;DHT22;2753;49.196;8.286;2022-07-17T02:07:13;19.80;59.40
5461;DHT22;2753;49.196;8.286;2022-07-17T02:09:39;19.70;59.70
5461;DHT22;2753;49.196;8.286;2022-07-17T02:12:05;19.70;59.90
5461;DHT22;2753;49.196;8.286;2022-07-17T02:14:31;19.60;59.60
5461;DHT22;2753;49.196;8.286;2022-07-17T02:16:58;19.60;59.80
5461;DHT22;2753;49.196;8.286;2022-07-17T02:19:23;19.60;60.00
5461;DHT22;2753;49.196;8.286;2022-07-17T02:21:49;19.60;59.90
5461;DHT22;2753;49.196;8.286;2022-07-17T02:24:15;19.50;59.90
5461;DHT22;2753;49.196;8.286;2022-07-17T02:26:41;19.50;59.80
5461;DHT22;2753;49.196;8.286;2022-07-17T02:29:06;19.50;60.10
5461;DHT22;2753;49.196;8.286;2022-07-17T02:31:32;19.40;60.00
5461;DHT22;2753;49.196;8.286;2022-07-17T02:33:58;19.40;60.10
5461;DHT22;2753;49.196;8.286;2022-07-17T02:36:24;19.40;60.30
5461;DHT22;2753;49.196;8.286;2022-07-17T02:38:49;19.40;60.40
5461;DHT22;2753;49.196;8.286;2022-07-17T02:41:15;19.30;60.60
5461;DHT22;2753;49.196;8.286;2022-07-17T02:43:43;19.30;60.40
5461;DHT22;2753;49.196;8.286;2022-07-17T02:46:09;19.20;60.70
5461;DHT22;2753;49.196;8.286;2022-07-17T02:48:35;19.10;61.10
5461;DHT22;2753;49.196;8.286;2022-07-17T02:51:01;19.10;61.10
5461;DHT22;2753;49.196;8.286;2022-07-17T02:53:26;19.10;60.80
5461;DHT22;2753;49.196;8.286;2022-07-17T02:55:52;19.10;61.10
5461;DHT22;2753;49.196;8.286;2022-07-17T02:58:18;19.00;61.10
5461;DHT22;2753;49.196;8.286;2022-07-17T03:00:44;19.10;60.90
5461;DHT22;2753;49.196;8.286;2022-07-17T03:03:10;19.00;61.30
5461;DHT22;2753;49.196;8.286;2022-07-17T03:05:35;19.00;61.00
5461;DHT22;2753;49.196;8.286;2022-07-17T03:08:01;18.90;61.00
5461;DHT22;2753;49.196;8.286;2022-07-17T03:10:27;18.90;61.30
5461;DHT22;2753;49.196;8.286;2022-07-17T03:12:53;18.90;61.10
5461;DHT22;2753;49.196;8.286;2022-07-17T03:15:18;18.90;61.00
5461;DHT22;2753;49.196;8.286;2022-07-17T03:17:44;18.90;60.60
5461;DHT22;2753;49.196;8.286;2022-07-17T03:20:10;18.90;60.90
5461;DHT22;2753;49.196;8.286;2022-07-17T03:22:36;18.90;61.10
5461;DHT22;2753;49.196;8.286;2022-07-17T03:25:02;18.80;61.50
5461;DHT22;2753;49.196;8.286;2022-07-17T03:27:27;18.70;61.40
5461;DHT22;2753;49.196;8.286;2022-07-17T03:29:53;18.70;61.70
5461;DHT22;2753;49.196;8.286;2022-07-17T03:32:20;18.70;61.70
5461;DHT22;2753;49.196;8.286;2022-07-17T03:34:46;18.70;62.30
5461;DHT22;2753;49.196;8.286;2022-07-17T03:37:12;18.60;62.20
5461;DHT22;2753;49.196;8.286;2022-07-17T03:39:37;18.50;62.30
5461;DHT22;2753;49.196;8.286;2022-07-17T03:42:03;18.50;62.10
5461;DHT22;2753;49.196;8.286;2022-07-17T03:44:29;18.50;62.30
5461;DHT22;2753;49.196;8.286;2022-07-17T03:46:54;18.50;62.30
5461;DHT22;2753;49.196;8.286;2022-07-17T03:49:20;18.50;62.50
5461;DHT22;2753;49.196;8.286;2022-07-17T03:51:47;18.40;62.50
5461;DHT22;2753;49.196;8.286;2022-07-17T03:54:13;18.40;62.70
5461;DHT22;2753;49.196;8.286;2022-07-17T03:56:38;18.40;62.80
5461;DHT22;2753;49.196;8.286;2022-07-17T03:59:04;18.40;63.30
5461;DHT22;2753;49.196;8.286;2022-07-17T04:01:30;18.40;63.00
5461;DHT22;2753;49.196;8.286;2022-07-17T04:03:56;18.30;63.30
5461;DHT22;2753;49.196;8.286;2022-07-17T04:06:21;18.30;62.70
5461;DHT22;2753;49.196;8.286;2022-07-17T04:08:47;18.30;63.30
5461;DHT22;2753;49.196;8.286;2022-07-17T04:11:12;18.20;63.50
5461;DHT22;2753;49.196;8.286;2022-07-17T04:13:38;18.20;63.40
5461;DHT22;2753;49.196;8.286;2022-07-17T04:16:04;18.20;63.40
5461;DHT22;2753;49.196;8.286;2022-07-17T04:18:33;18.10;63.90
5461;DHT22;2753;49.196;8.286;2022-07-17T04:21:02;18.10;63.80
5461;DHT22;2753;49.196;8.286;2022-07-17T04:23:28;18.10;63.80
5461;DHT22;2753;49.196;8.286;2022-07-17T04:25:54;18.00;63.70
5461;DHT22;2753;49.196;8.286;2022-07-17T04:28:20;18.10;64.10
5461;DHT22;2753;49.196;8.286;2022-07-17T04:30:45;18.00;64.60
5461;DHT22;2753;49.196;8.286;2022-07-17T04:33:12;18.00;64.30
5461;DHT22;2753;49.196;8.286;2022-07-17T04:35:38;17.90;64.80
5461;DHT22;2753;49.196;8.286;2022-07-17T04:38:05;17.90;64.90
5461;DHT22;2753;49.196;8.286;2022-07-17T04:40:32;18.00;64.20
5461;DHT22;2753;49.196;8.286;2022-07-17T04:42:58;18.00;64.40
5461;DHT22;2753;49.196;8.286;2022-07-17T04:45:24;17.90;64.70
5461;DHT22;2753;49.196;8.286;2022-07-17T04:47:50;17.90;64.40
5461;DHT22;2753;49.196;8.286;2022-07-17T04:50:15;17.90;64.90
5461;DHT22;2753;49.196;8.286;2022-07-17T04:52:41;17.90;65.00
5461;DHT22;2753;49.196;8.286;2022-07-17T04:55:07;17.90;65.10
5461;DHT22;2753;49.196;8.286;2022-07-17T04:57:33;18.00;64.30
5461;DHT22;2753;49.196;8.286;2022-07-17T04:59:58;18.00;63.70
5461;DHT22;2753;49.196;8.286;2022-07-17T05:02:24;18.10;64.30
5461;DHT22;2753;49.196;8.286;2022-07-17T05:04:50;18.10;64.60
5461;DHT22;2753;49.196;8.286;2022-07-17T05:07:16;18.10;64.40
5461;DHT22;2753;49.196;8.286;2022-07-17T05:09:42;18.10;64.40
5461;DHT22;2753;49.196;8.286;2022-07-17T05:12:08;18.10;64.40
5461;DHT22;2753;49.196;8.286;2022-07-17T05:14:34;18.10;64.00
5461;DHT22;2753;49.196;8.286;2022-07-17T05:17:00;18.10;64.40
5461;DHT22;2753;49.196;8.286;2022-07-17T05:19:27;18.20;64.20
5461;DHT22;2753;49.196;8.286;2022-07-17T05:21:52;18.20;64.30
5461;DHT22;2753;49.196;8.286;2022-07-17T05:24:18;18.20;64.10
5461;DHT22;2753;49.196;8.286;2022-07-17T05:26:44;18.20;64.30
5461;DHT22;2753;49.196;8.286;2022-07-17T05:29:10;18.20;64.20
5461;DHT22;2753;49.196;8.286;2022-07-17T05:31:35;18.20;64.30
5461;DHT22;2753;49.196;8.286;2022-07-17T05:34:01;18.20;64.50
5461;DHT22;2753;49.196;8.286;2022-07-17T05:36:27;18.40;64.30
5461;DHT22;2753;49.196;8.286;2022-07-17T05:38:53;18.40;64.30
5461;DHT22;2753;49.196;8.286;2022-07-17T05:41:18;18.40;64.30
5461;DHT22;2753;49.196;8.286;2022-07-17T05:43:44;18.40;64.30
5461;DHT22;2753;49.196;8.286;2022-07-17T05:46:10;18.40;64.10
5461;DHT22;2753;49.196;8.286;2022-07-17T05:48:35;18.40;64.30
5461;DHT22;2753;49.196;8.286;2022-07-17T05:51:01;18.50;64.20
5461;DHT22;2753;49.196;8.286;2022-07-17T05:53:27;18.50;64.10
5461;DHT22;2753;49.196;8.286;2022-07-17T05:55:53;18.50;64.00
5461;DHT22;2753;49.196;8.286;2022-07-17T05:58:19;18.60;63.90
5461;DHT22;2753;49.196;8.286;2022-07-17T06:00:45;18.50;64.10
5461;DHT22;2753;49.196;8.286;2022-07-17T06:03:10;18.60;64.00
5461;DHT22;2753;49.196;8.286;2022-07-17T06:05:37;18.70;63.90
5461;DHT22;2753;49.196;8.286;2022-07-17T06:08:03;18.70;63.90
5461;DHT22;2753;49.196;8.286;2022-07-17T06:10:29;18.70;63.90
5461;DHT22;2753;49.196;8.286;2022-07-17T06:12:55;18.70;63.90
5461;DHT22;2753;49.196;8.286;2022-07-17T06:15:22;18.70;63.90
5461;DHT22;2753;49.196;8.286;2022-07-17T06:17:48;18.80;64.00
5461;DHT22;2753;49.196;8.286;2022-07-17T06:20:14;18.80;64.20
5461;DHT22;2753;49.196;8.286;2022-07-17T06:22:41;18.80;64.40
5461;DHT22;2753;49.196;8.286;2022-07-17T06:25:07;18.80;64.50
5461;DHT22;2753;49.196;8.286;2022-07-17T06:27:33;18.90;64.00
5461;DHT22;2753;49.196;8.286;2022-07-17T06:29:59;19.00;64.10
5461;DHT22;2753;49.196;8.286;2022-07-17T06:32:26;19.00;63.70
5461;DHT22;2753;49.196;8.286;2022-07-17T06:34:52;19.10;63.30
5461;DHT22;2753;49.196;8.286;2022-07-17T06:37:18;19.10;63.20
5461;DHT22;2753;49.196;8.286;2022-07-17T06:39:43;19.20;63.20
5461;DHT22;2753;49.196;8.286;2022-07-17T06:42:09;19.20;62.90
5461;DHT22;2753;49.196;8.286;2022-07-17T06:44:38;19.30;63.00
5461;DHT22;2753;49.196;8.286;2022-07-17T06:47:04;19.40;63.20
5461;DHT22;2753;49.196;8.286;2022-07-17T06:49:29;19.50;63.60
5461;DHT22;2753;49.196;8.286;2022-07-17T06:51:55;19.60;63.40
5461;DHT22;2753;49.196;8.286;2022-07-17T06:54:21;19.80;63.10
5461;DHT22;2753;49.196;8.286;2022-07-17T06:56:52;20.00;62.30
5461;DHT22;2753;49.196;8.286;2022-07-17T06:59:18;20.30;62.20
5461;DHT22;2753;49.196;8.286;2022-07-17T07:01:43;20.60;61.60
5461;DHT22;2753;49.196;8.286;2022-07-17T07:04:09;20.90;60.60
5461;DHT22;2753;49.196;8.286;2022-07-17T07:06:35;21.00;59.90
5461;DHT22;2753;49.196;8.286;2022-07-17T07:09:00;21.10;59.50
5461;DHT22;2753;49.196;8.286;2022-07-17T07:11:26;21.20;59.80
5461;DHT22;2753;49.196;8.286;2022-07-17T07:13:52;21.40;59.30
5461;DHT22;2753;49.196;8.286;2022-07-17T07:16:17;21.60;58.50
5461;DHT22;2753;49.196;8.286;2022-07-17T07:18:43;21.70;58.70
5461;DHT22;2753;49.196;8.286;2022-07-17T07:21:09;22.00;57.50
5461;DHT22;2753;49.196;8.286;2022-07-17T07:23:35;22.20;57.10
5461;DHT22;2753;49.196;8.286;2022-07-17T07:26:01;22.30;56.50
5461;DHT22;2753;49.196;8.286;2022-07-17T07:28:26;22.50;56.50
5461;DHT22;2753;49.196;8.286;2022-07-17T07:30:52;22.60;56.00
5461;DHT22;2753;49.196;8.286;2022-07-17T07:33:18;22.70;56.20
5461;DHT22;2753;49.196;8.286;2022-07-17T07:35:44;22.90;55.60
5461;DHT22;2753;49.196;8.286;2022-07-17T07:38:10;23.00;55.70
5461;DHT22;2753;49.196;8.286;2022-07-17T07:40:36;23.20;55.80
5461;DHT22;2753;49.196;8.286;2022-07-17T07:43:02;23.40;54.50
5461;DHT22;2753;49.196;8.286;2022-07-17T07:45:28;23.60;54.40
5461;DHT22;2753;49.196;8.286;2022-07-17T07:47:54;23.80;54.30
5461;DHT22;2753;49.196;8.286;2022-07-17T07:50:24;24.00;54.50
5461;DHT22;2753;49.196;8.286;2022-07-17T07:52:50;24.30;53.80
5461;DHT22;2753;49.196;8.286;2022-07-17T07:55:16;24.50;53.60
5461;DHT22;2753;49.196;8.286;2022-07-17T07:57:42;24.40;54.10
5461;DHT22;2753;49.196;8.286;2022-07-17T08:00:09;24.60;53.70
5461;DHT22;2753;49.196;8.286;2022-07-17T08:02:35;24.80;54.10
5461;DHT22;2753;49.196;8.286;2022-07-17T08:05:01;25.30;52.40
5461;DHT22;2753;49.196;8.286;2022-07-17T08:07:28;25.50;53.00
5461;DHT22;2753;49.196;8.286;2022-07-17T08:09:54;25.70;52.30
5461;DHT22;2753;49.196;8.286;2022-07-17T08:12:21;25.70;51.80
5461;DHT22;2753;49.196;8.286;2022-07-17T08:14:47;25.70;51.40
5461;DHT22;2753;49.196;8.286;2022-07-17T08:17:13;25.70;51.70
5461;DHT22;2753;49.196;8.286;2022-07-17T08:19:38;26.00;51.30
5461;DHT22;2753;49.196;8.286;2022-07-17T08:22:04;26.20;51.10
5461;DHT22;2753;49.196;8.286;2022-07-17T08:24:30;26.40;50.60
5461;DHT22;2753;49.196;8.286;2022-07-17T08:26:56;26.40;51.00
5461;DHT22;2753;49.196;8.286;2022-07-17T08:29:21;26.50;50.30
5461;DHT22;2753;49.196;8.286;2022-07-17T08:31:47;26.60;50.30
5461;DHT22;2753;49.196;8.286;2022-07-17T08:34:13;26.70;50.00
5461;DHT22;2753;49.196;8.286;2022-07-17T08:36:40;26.60;50.70
5461;DHT22;2753;49.196;8.286;2022-07-17T08:39:07;26.80;50.40
5461;DHT22;2753;49.196;8.286;2022-07-17T08:41:37;26.90;49.30
5461;DHT22;2753;49.196;8.286;2022-07-17T08:44:07;27.30;49.30
5461;DHT22;2753;49.196;8.286;2022-07-17T08:46:36;27.20;48.70
5461;DHT22;2753;49.196;8.286;2022-07-17T08:49:03;27.60;48.70
5461;DHT22;2753;49.196;8.286;2022-07-17T08:51:30;27.80;46.40
5461;DHT22;2753;49.196;8.286;2022-07-17T08:53:56;27.90;48.40
5461;DHT22;2753;49.196;8.286;2022-07-17T08:56:22;27.80;48.50
5461;DHT22;2753;49.196;8.286;2022-07-17T08:58:48;27.50;48.60
5461;DHT22;2753;49.196;8.286;2022-07-17T09:01:14;27.80;48.50
5461;DHT22;2753;49.196;8.286;2022-07-17T09:03:41;28.30;48.50
5461;DHT22;2753;49.196;8.286;2022-07-17T09:06:21;28.60;47.00
5461;DHT22;2753;49.196;8.286;2022-07-17T09:08:47;28.60;47.70
5461;DHT22;2753;49.196;8.286;2022-07-17T09:11:13;28.50;47.80
5461;DHT22;2753;49.196;8.286;2022-07-17T09:13:44;28.60;46.40
5461;DHT22;2753;49.196;8.286;2022-07-17T09:16:11;28.50;47.30
5461;DHT22;2753;49.196;8.286;2022-07-17T09:18:48;28.50;47.30
5461;DHT22;2753;49.196;8.286;2022-07-17T09:21:24;28.80;46.00
5461;DHT22;2753;49.196;8.286;2022-07-17T09:24:05;28.50;46.30
5461;DHT22;2753;49.196;8.286;2022-07-17T09:26:33;28.80;45.70
5461;DHT22;2753;49.196;8.286;2022-07-17T09:29:03;28.70;44.00
5461;DHT22;2753;49.196;8.286;2022-07-17T09:31:31;28.70;44.50
5461;DHT22;2753;49.196;8.286;2022-07-17T09:33:59;28.60;44.80
5461;DHT22;2753;49.196;8.286;2022-07-17T09:36:26;28.70;44.70
5461;DHT22;2753;49.196;8.286;2022-07-17T09:38:57;28.50;45.10
5461;DHT22;2753;49.196;8.286;2022-07-17T09:41:25;28.40;44.80
5461;DHT22;2753;49.196;8.286;2022-07-17T09:43:53;28.40;45.10
5461;DHT22;2753;49.196;8.286;2022-07-17T09:48:53;28.30;44.30
5461;DHT22;2753;49.196;8.286;2022-07-17T09:51:28;28.10;45.30
5461;DHT22;2753;49.196;8.286;2022-07-17T09:53:56;27.90;44.40
5461;DHT22;2753;49.196;8.286;2022-07-17T09:56:25;27.70;45.00
5461;DHT22;2753;49.196;8.286;2022-07-17T09:58:53;27.70;45.60
5461;DHT22;2753;49.196;8.286;2022-07-17T10:01:20;27.90;45.30
5461;DHT22;2753;49.196;8.286;2022-07-17T10:03:46;27.90;45.40
5461;DHT22;2753;49.196;8.286;2022-07-17T10:06:22;27.80;44.30
5461;DHT22;2753;49.196;8.286;2022-07-17T10:08:48;27.60;44.10
5461;DHT22;2753;49.196;8.286;2022-07-17T10:11:14;27.80;44.50
5461;DHT22;2753;49.196;8.286;2022-07-17T10:13:43;27.80;44.50
5461;DHT22;2753;49.196;8.286;2022-07-17T10:16:11;27.80;45.50
5461;DHT22;2753;49.196;8.286;2022-07-17T10:18:42;27.80;44.60
5461;DHT22;2753;49.196;8.286;2022-07-17T10:21:11;27.90;45.20
5461;DHT22;2753;49.196;8.286;2022-07-17T10:23:38;27.80;44.30
5461;DHT22;2753;49.196;8.286;2022-07-17T10:26:04;27.90;45.00
5461;DHT22;2753;49.196;8.286;2022-07-17T10:28:46;27.90;44.00
5461;DHT22;2753;49.196;8.286;2022-07-17T10:31:26;27.70;44.90
5461;DHT22;2753;49.196;8.286;2022-07-17T10:34:04;27.40;45.00
5461;DHT22;2753;49.196;8.286;2022-07-17T10:36:38;27.50;45.30
5461;DHT22;2753;49.196;8.286;2022-07-17T10:39:16;27.70;45.00
5461;DHT22;2753;49.196;8.286;2022-07-17T10:41:42;27.60;44.60
5461;DHT22;2753;49.196;8.286;2022-07-17T10:44:08;27.40;43.70
5461;DHT22;2753;49.196;8.286;2022-07-17T10:46:34;27.20;44.80
5461;DHT22;2753;49.196;8.286;2022-07-17T10:49:02;27.20;45.40
5461;DHT22;2753;49.196;8.286;2022-07-17T10:51:31;27.30;45.50
5461;DHT22;2753;49.196;8.286;2022-07-17T10:53:58;27.10;45.00
5461;DHT22;2753;49.196;8.286;2022-07-17T10:56:25;27.20;45.50
5461;DHT22;2753;49.196;8.286;2022-07-17T10:58:51;27.30;45.50
5461;DHT22;2753;49.196;8.286;2022-07-17T11:01:21;27.40;45.10
5461;DHT22;2753;49.196;8.286;2022-07-17T11:04:00;27.20;44.00
5461;DHT22;2753;49.196;8.286;2022-07-17T11:06:37;27.20;45.10
5461;DHT22;2753;49.196;8.286;2022-07-17T11:09:09;27.20;45.00
5461;DHT22;2753;49.196;8.286;2022-07-17T11:14:20;27.30;44.00
5461;DHT22;2753;49.196;8.286;2022-07-17T11:19:27;27.40;44.00
5461;DHT22;2753;49.196;8.286;2022-07-17T11:21:54;27.40;43.00
5461;DHT22;2753;49.196;8.286;2022-07-17T11:24:21;27.30;43.40
5461;DHT22;2753;49.196;8.286;2022-07-17T11:26:50;27.10;42.20
5461;DHT22;2753;49.196;8.286;2022-07-17T11:29:16;27.10;43.30
5461;DHT22;2753;49.196;8.286;2022-07-17T11:31:42;27.20;43.80
5461;DHT22;2753;49.196;8.286;2022-07-17T11:34:10;27.30;44.20
5461;DHT22;2753;49.196;8.286;2022-07-17T11:36:45;27.20;41.50
5461;DHT22;2753;49.196;8.286;2022-07-17T11:39:14;27.20;42.90
5461;DHT22;2753;49.196;8.286;2022-07-17T11:41:46;27.10;43.10
5461;DHT22;2753;49.196;8.286;2022-07-17T11:44:14;27.10;43.60
5461;DHT22;2753;49.196;8.286;2022-07-17T11:46:42;27.20;44.30
5461;DHT22;2753;49.196;8.286;2022-07-17T11:49:09;27.30;43.60
5461;DHT22;2753;49.196;8.286;2022-07-17T11:51:37;27.30;42.10
5461;DHT22;2753;49.196;8.286;2022-07-17T11:54:05;27.30;41.80
5461;DHT22;2753;49.196;8.286;2022-07-17T11:56:30;27.20;40.20
5461;DHT22;2753;49.196;8.286;2022-07-17T11:58:56;27.20;40.80
5461;DHT22;2753;49.196;8.286;2022-07-17T12:01:22;27.30;40.40
5461;DHT22;2753;49.196;8.286;2022-07-17T12:03:58;27.20;40.00
5461;DHT22;2753;49.196;8.286;2022-07-17T12:06:27;27.10;40.60
5461;DHT22;2753;49.196;8.286;2022-07-17T12:08:54;27.20;41.40
5461;DHT22;2753;49.196;8.286;2022-07-17T12:11:20;27.30;42.20
5461;DHT22;2753;49.196;8.286;2022-07-17T12:13:47;27.40;41.40
5461;DHT22;2753;49.196;8.286;2022-07-17T12:19:02;27.30;41.70
5461;DHT22;2753;49.196;8.286;2022-07-17T12:21:31;27.30;42.00
5461;DHT22;2753;49.196;8.286;2022-07-17T12:24:03;27.40;42.20
5461;DHT22;2753;49.196;8.286;2022-07-17T12:26:30;27.40;41.20
5461;DHT22;2753;49.196;8.286;2022-07-17T12:28:56;27.50;40.60
5461;DHT22;2753;49.196;8.286;2022-07-17T12:31:21;27.60;39.60
5461;DHT22;2753;49.196;8.286;2022-07-17T12:33:51;27.50;38.30
5461;DHT22;2753;49.196;8.286;2022-07-17T12:36:17;27.40;38.60
5461;DHT22;2753;49.196;8.286;2022-07-17T12:38:43;27.40;39.60
5461;DHT22;2753;49.196;8.286;2022-07-17T12:41:08;27.50;39.50
5461;DHT22;2753;49.196;8.286;2022-07-17T12:43:35;27.50;39.40
5461;DHT22;2753;49.196;8.286;2022-07-17T12:46:01;27.50;39.70
5461;DHT22;2753;49.196;8.286;2022-07-17T12:48:26;27.60;39.70
5461;DHT22;2753;49.196;8.286;2022-07-17T12:50:52;27.60;39.70
5461;DHT22;2753;49.196;8.286;2022-07-17T12:53:18;27.60;40.50
5461;DHT22;2753;49.196;8.286;2022-07-17T12:55:44;27.60;39.80
5461;DHT22;2753;49.196;8.286;2022-07-17T12:58:09;27.60;39.30
5461;DHT22;2753;49.196;8.286;2022-07-17T13:00:35;27.60;37.90
5461;DHT22;2753;49.196;8.286;2022-07-17T13:03:04;27.60;38.40
5461;DHT22;2753;49.196;8.286;2022-07-17T13:05:30;27.60;38.60
5461;DHT22;2753;49.196;8.286;2022-07-17T13:07:56;27.50;39.20
5461;DHT22;2753;49.196;8.286;2022-07-17T13:10:22;27.60;40.80
5461;DHT22;2753;49.196;8.286;2022-07-17T13:12:48;27.60;40.70
5461;DHT22;2753;49.196;8.286;2022-07-17T13:15:14;27.70;40.70
5461;DHT22;2753;49.196;8.286;2022-07-17T13:17:40;27.70;41.00
5461;DHT22;2753;49.196;8.286;2022-07-17T13:20:06;27.70;41.70
5461;DHT22;2753;49.196;8.286;2022-07-17T13:22:32;27.80;42.20
5461;DHT22;2753;49.196;8.286;2022-07-17T13:24:58;27.80;41.50
5461;DHT22;2753;49.196;8.286;2022-07-17T13:27:23;27.80;41.30
5461;DHT22;2753;49.196;8.286;2022-07-17T13:29:49;27.90;41.00
5461;DHT22;2753;49.196;8.286;2022-07-17T13:32:15;27.90;41.60
5461;DHT22;2753;49.196;8.286;2022-07-17T13:34:41;27.90;41.40
5461;DHT22;2753;49.196;8.286;2022-07-17T13:37:07;27.90;40.80
5461;DHT22;2753;49.196;8.286;2022-07-17T13:39:34;27.80;40.10
5461;DHT22;2753;49.196;8.286;2022-07-17T13:42:00;27.80;40.60
5461;DHT22;2753;49.196;8.286;2022-07-17T13:44:25;27.90;40.30
5461;DHT22;2753;49.196;8.286;2022-07-17T13:46:51;28.00;40.60
5461;DHT22;2753;49.196;8.286;2022-07-17T13:49:17;28.00;40.40
5461;DHT22;2753;49.196;8.286;2022-07-17T13:51:42;28.10;39.90
5461;DHT22;2753;49.196;8.286;2022-07-17T13:54:08;28.10;40.00
5461;DHT22;2753;49.196;8.286;2022-07-17T13:56:34;28.10;39.90
5461;DHT22;2753;49.196;8.286;2022-07-17T13:59:00;28.10;40.20
5461;DHT22;2753;49.196;8.286;2022-07-17T14:01:27;28.00;40.10
5461;DHT22;2753;49.196;8.286;2022-07-17T14:03:53;28.00;40.30
5461;DHT22;2753;49.196;8.286;2022-07-17T14:06:19;28.00;40.30
5461;DHT22;2753;49.196;8.286;2022-07-17T14:08:45;28.00;40.80
5461;DHT22;2753;49.196;8.286;2022-07-17T14:11:11;28.10;39.90
5461;DHT22;2753;49.196;8.286;2022-07-17T14:13:38;28.10;40.00
5461;DHT22;2753;49.196;8.286;2022-07-17T14:16:04;28.20;39.50
5461;DHT22;2753;49.196;8.286;2022-07-17T14:18:30;28.20;40.20
5461;DHT22;2753;49.196;8.286;2022-07-17T14:20:55;28.20;39.70
5461;DHT22;2753;49.196;8.286;2022-07-17T14:23:21;28.10;39.20
5461;DHT22;2753;49.196;8.286;2022-07-17T14:25:47;28.10;38.50
5461;DHT22;2753;49.196;8.286;2022-07-17T14:28:12;28.20;38.50
5461;DHT22;2753;49.196;8.286;2022-07-17T14:30:38;28.20;38.40
5461;DHT22;2753;49.196;8.286;2022-07-17T14:33:04;28.10;38.70
5461;DHT22;2753;49.196;8.286;2022-07-17T14:35:30;28.20;39.30
5461;DHT22;2753;49.196;8.286;2022-07-17T14:37:57;28.30;40.00
5461;DHT22;2753;49.196;8.286;2022-07-17T14:40:23;28.30;38.40
5461;DHT22;2753;49.196;8.286;2022-07-17T14:42:49;28.30;38.90
5461;DHT22;2753;49.196;8.286;2022-07-17T14:45:15;28.30;39.80
5461;DHT22;2753;49.196;8.286;2022-07-17T14:47:40;28.20;39.80
5461;DHT22;2753;49.196;8.286;2022-07-17T14:50:07;28.30;40.80
5461;DHT22;2753;49.196;8.286;2022-07-17T14:52:33;28.20;39.90
5461;DHT22;2753;49.196;8.286;2022-07-17T14:54:59;28.20;40.00
5461;DHT22;2753;49.196;8.286;2022-07-17T14:57:24;28.30;40.00
5461;DHT22;2753;49.196;8.286;2022-07-17T14:59:50;28.30;41.00
5461;DHT22;2753;49.196;8.286;2022-07-17T15:02:17;28.30;41.20
5461;DHT22;2753;49.196;8.286;2022-07-17T15:04:43;28.30;41.10
5461;DHT22;2753;49.196;8.286;2022-07-17T15:07:09;28.40;41.40
5461;DHT22;2753;49.196;8.286;2022-07-17T15:09:35;28.40;41.60
5461;DHT22;2753;49.196;8.286;2022-07-17T15:12:00;28.40;40.70
5461;DHT22;2753;49.196;8.286;2022-07-17T15:14:26;28.40;39.30
5461;DHT22;2753;49.196;8.286;2022-07-17T15:16:52;28.40;39.90
5461;DHT22;2753;49.196;8.286;2022-07-17T15:19:17;28.30;40.60
5461;DHT22;2753;49.196;8.286;2022-07-17T15:21:43;28.40;40.70
5461;DHT22;2753;49.196;8.286;2022-07-17T15:24:09;28.40;41.40
5461;DHT22;2753;49.196;8.286;2022-07-17T15:26:34;28.40;41.20
5461;DHT22;2753;49.196;8.286;2022-07-17T15:29:00;28.40;41.10
5461;DHT22;2753;49.196;8.286;2022-07-17T15:31:26;28.40;41.50
5461;DHT22;2753;49.196;8.286;2022-07-17T15:33:52;28.50;41.50
5461;DHT22;2753;49.196;8.286;2022-07-17T15:36:18;28.50;40.60
5461;DHT22;2753;49.196;8.286;2022-07-17T15:38:57;28.40;40.40
5461;DHT22;2753;49.196;8.286;2022-07-17T15:41:25;28.40;41.20
5461;DHT22;2753;49.196;8.286;2022-07-17T15:43:51;28.40;41.10
5461;DHT22;2753;49.196;8.286;2022-07-17T15:46:17;28.40;40.50
5461;DHT22;2753;49.196;8.286;2022-07-17T15:48:43;28.40;40.10
5461;DHT22;2753;49.196;8.286;2022-07-17T15:51:09;28.40;40.40
5461;DHT22;2753;49.196;8.286;2022-07-17T15:53:34;28.30;40.60
5461;DHT22;2753;49.196;8.286;2022-07-17T15:56:00;28.40;40.60
5461;DHT22;2753;49.196;8.286;2022-07-17T15:58:27;28.40;40.70
5461;DHT22;2753;49.196;8.286;2022-07-17T16:00:52;28.40;40.70
5461;DHT22;2753;49.196;8.286;2022-07-17T16:03:18;28.50;40.00
5461;DHT22;2753;49.196;8.286;2022-07-17T16:05:44;28.40;39.80
5461;DHT22;2753;49.196;8.286;2022-07-17T16:08:10;28.40;40.00